Time;durP1;ratioP1;P1;durP2;ratioP2;P2;SDS_P1;SDS_P2;PMS_P1;PMS_P2;Temp;Humidity;BMP_temperature;BMP_pressure;BME280_temperature;BME280_humidity;BME280_pressure;Samples;Min_cycle;Max_cycle;Signal;HPM_P1;HPM_P2
2023/01/25 00:01:30;;;;;;;15.23;10.65;;;6.90;99.90;;;;;;5020898;28;20045;-77
2023/01/25 00:04:16;;;;;;;14.40;10.25;;;6.80;99.90;;;;;;5050821;28;20025;-76
2023/01/25 00:07:50;;;;;;;15.40;10.18;;;7.00;99.90;;;;;;5027636;28;20061;-78
2023/01/25 00:11:19;;;;;;;12.60;10.05;;;7.20;99.90;;;;;;5024586;28;20045;-77
2023/01/25 00:17:14;;;;;;;11.95;9.60;;;7.20;99.90;;;;;;5075266;22;20045;-75
2023/01/25 00:20:21;;;;;;;13.18;9.20;;;7.10;99.90;;;;;;4926506;28;20066;-76
2023/01/25 00:23:26;;;;;;;11.85;8.82;;;7.20;99.90;;;;;;5063817;23;20054;-74
2023/01/25 00:26:22;;;;;;;12.15;9.00;;;7.10;99.90;;;;;;4974722;28;20091;-76
2023/01/25 00:29:38;;;;;;;15.48;9.80;;;7.00;99.90;;;;;;4952017;28;20376;-75
2023/01/25 00:33:28;;;;;;;13.68;9.88;;;7.00;99.90;;;;;;4952221;28;20043;-75
2023/01/25 00:40:39;;;;;;;11.98;9.10;;;6.90;99.90;;;;;;5030090;23;20683;-74
2023/01/25 00:43:07;;;;;;;10.68;8.27;;;6.90;99.90;;;;;;4964470;23;20368;-75
2023/01/25 00:45:42;;;;;;;12.40;8.43;;;6.80;99.90;;;;;;4970933;28;20061;-74
2023/01/25 00:48:16;;;;;;;11.98;8.73;;;6.80;99.90;;;;;;4943047;28;20051;-75
2023/01/25 00:50:44;;;;;;;11.32;8.73;;;6.70;99.90;;;;;;4934262;28;20396;-78
2023/01/25 00:53:16;;;;;;;12.15;9.20;;;6.60;99.90;;;;;;4954688;28;20051;-78
2023/01/25 00:55:54;;;;;;;12.40;8.80;;;6.60;99.90;;;;;;4968235;28;20047;-75
2023/01/25 00:58:23;;;;;;;13.10;9.57;;;6.70;99.90;;;;;;4928513;29;20058;-78
2023/01/25 01:00:53;;;;;;;11.25;8.77;;;6.70;99.90;;;;;;4939386;28;20051;-77
2023/01/25 01:03:22;;;;;;;13.25;8.95;;;6.70;99.90;;;;;;4957965;28;20171;-77
2023/01/25 01:06:09;;;;;;;12.50;9.02;;;6.70;99.90;;;;;;4938398;28;20042;-75
2023/01/25 01:08:41;;;;;;;12.43;8.63;;;6.60;99.90;;;;;;4942326;28;20047;-76
2023/01/25 01:11:12;;;;;;;10.65;8.45;;;6.60;99.90;;;;;;4945628;28;20043;-77
2023/01/25 01:13:44;;;;;;;13.40;9.25;;;6.60;99.90;;;;;;4965720;28;20376;-75
2023/01/25 01:16:12;;;;;;;14.32;9.68;;;6.60;99.90;;;;;;4957649;28;20038;-76
2023/01/25 01:18:42;;;;;;;11.35;8.68;;;6.60;99.90;;;;;;4972937;28;20043;-75
2023/01/25 01:21:11;;;;;;;12.38;8.77;;;6.60;99.90;;;;;;4951027;28;20477;-75
2023/01/25 01:23:39;;;;;;;11.32;9.02;;;6.70;99.90;;;;;;4941485;28;20062;-75
2023/01/25 01:26:08;;;;;;;13.20;8.80;;;6.60;99.90;;;;;;4957000;28;20050;-74
2023/01/25 01:28:39;;;;;;;11.10;8.93;;;6.60;99.90;;;;;;4956942;28;20472;-77
2023/01/25 01:31:07;;;;;;;;;;;6.50;99.90;;;;;;4942158;28;20398;-76
2023/01/25 01:33:34;;;;;;;10.82;8.32;;;6.60;99.90;;;;;;4941287;28;19926;-77
2023/01/25 01:36:18;;;;;;;10.93;8.32;;;6.60;99.90;;;;;;4941731;28;20054;-75
2023/01/25 01:38:46;;;;;;;11.57;8.02;;;6.60;99.90;;;;;;4940512;28;20058;-75
2023/01/25 01:41:14;;;;;;;10.90;8.48;;;6.60;99.90;;;;;;4956488;28;20371;-75
2023/01/25 01:43:42;;;;;;;11.70;8.23;;;6.60;99.90;;;;;;4973652;28;20376;-75
2023/01/25 01:46:15;;;;;;;12.10;8.50;;;6.60;99.90;;;;;;4940696;28;20051;-75
2023/01/25 01:49:08;;;;;;;10.90;8.43;;;6.60;99.90;;;;;;4942432;28;20507;-76
2023/01/25 01:51:58;;;;;;;12.25;8.73;;;6.50;99.90;;;;;;4946172;28;20049;-75
2023/01/25 01:54:54;;;;;;;10.20;7.95;;;6.50;99.90;;;;;;4940890;28;20071;-74
2023/01/25 01:57:33;;;;;;;10.90;7.93;;;6.50;99.90;;;;;;4940754;28;20453;-74
2023/01/25 02:00:10;;;;;;;9.32;7.70;;;6.60;99.90;;;;;;4973553;28;20133;-75
2023/01/25 02:02:45;;;;;;;10.02;8.25;;;6.50;99.90;;;;;;4956521;28;20070;-76
2023/01/25 02:05:21;;;;;;;10.63;8.43;;;6.60;99.90;;;;;;4955309;28;20575;-78
2023/01/25 02:07:53;;;;;;;10.52;7.88;;;6.50;99.90;;;;;;4941032;28;20050;-72
2023/01/25 02:10:23;;;;;;;10.82;8.15;;;6.50;99.90;;;;;;4956584;28;20558;-75
2023/01/25 02:12:54;;;;;;;11.15;8.40;;;6.50;99.90;;;;;;4941516;28;20558;-72
2023/01/25 02:15:33;;;;;;;12.27;7.87;;;6.40;99.90;;;;;;4974061;28;20400;-73
2023/01/25 02:18:14;;;;;;;11.13;8.50;;;6.50;99.90;;;;;;4955165;28;20038;-73
2023/01/25 02:20:44;;;;;;;10.88;7.95;;;6.50;99.90;;;;;;4945984;28;20046;-72
2023/01/25 02:23:23;;;;;;;10.43;7.72;;;6.60;99.90;;;;;;4971873;28;20504;-74
2023/01/25 02:25:50;;;;;;;11.10;8.02;;;6.50;99.90;;;;;;4972924;28;20050;-75
2023/01/25 02:28:29;;;;;;;10.70;7.95;;;6.50;99.90;;;;;;4940359;28;20081;-73
2023/01/25 02:30:56;;;;;;;9.80;8.10;;;6.50;99.90;;;;;;4969309;28;20049;-73
2023/01/25 02:33:27;;;;;;;8.68;7.22;;;6.60;99.90;;;;;;4940333;28;20457;-74
2023/01/25 02:36:23;;;;;;;10.48;7.80;;;6.50;99.90;;;;;;4940539;28;20073;-74
2023/01/25 02:39:07;;;;;;;11.20;8.35;;;6.60;99.90;;;;;;4964803;28;20053;-73
2023/01/25 02:41:40;;;;;;;10.93;8.02;;;6.60;99.90;;;;;;4955062;28;20133;-75
2023/01/25 02:44:30;;;;;;;12.25;8.27;;;6.50;99.90;;;;;;4971105;28;20170;-73
2023/01/25 02:47:00;;;;;;;12.30;8.27;;;6.50;99.90;;;;;;4939957;28;20078;-73
2023/01/25 02:49:37;;;;;;;11.88;8.18;;;6.50;99.90;;;;;;4940287;28;20051;-74
2023/01/25 02:52:08;;;;;;;11.15;7.75;;;6.50;99.90;;;;;;4953456;28;20138;-76
2023/01/25 02:54:35;;;;;;;;;;;6.40;99.90;;;;;;4956214;28;20134;-76
2023/01/25 02:57:05;;;;;;;9.75;7.30;;;6.50;99.90;;;;;;4955536;28;19922;-73
2023/01/25 02:59:37;;;;;;;10.63;7.60;;;6.50;99.90;;;;;;5009418;23;20042;-74
2023/01/25 03:02:08;;;;;;;;;;;6.50;99.90;;;;;;4977858;28;20038;-75
2023/01/25 03:04:38;;;;;;;9.57;7.28;;;6.60;99.90;;;;;;5011574;23;19924;-76
2023/01/25 03:07:09;;;;;;;11.23;8.18;;;6.60;99.90;;;;;;4994436;28;20100;-73
2023/01/25 03:09:36;;;;;;;8.85;7.32;;;6.50;99.90;;;;;;4982920;28;20101;-74
2023/01/25 03:12:04;;;;;;;8.85;7.40;;;6.50;99.90;;;;;;5005494;28;20050;-75
2023/01/25 03:14:31;;;;;;;10.82;7.78;;;6.50;99.90;;;;;;4990671;28;20038;-74
2023/01/25 03:16:58;;;;;;;10.57;7.65;;;6.50;99.90;;;;;;4990294;28;20046;-75
2023/01/25 03:19:26;;;;;;;11.80;8.45;;;6.40;99.90;;;;;;4990855;28;20046;-74
2023/01/25 03:21:57;;;;;;;11.10;8.35;;;6.40;99.90;;;;;;4991286;28;20046;-76
2023/01/25 03:24:27;;;;;;;9.38;7.38;;;6.40;99.90;;;;;;4990668;28;20058;-76
2023/01/25 03:27:28;;;;;;;11.65;8.02;;;6.40;99.90;;;;;;4991608;28;20414;-75
2023/01/25 03:29:48;;;;;;;11.95;7.40;;;6.30;99.90;;;;;;4989221;28;20050;-74
2023/01/25 03:32:16;;;;;;;11.00;8.70;;;6.40;99.90;;;;;;4991490;28;20053;-75
2023/01/25 03:34:43;;;;;;;10.32;8.07;;;6.40;99.90;;;;;;4990151;28;20038;-77
2023/01/25 03:37:11;;;;;;;10.27;8.00;;;6.40;99.90;;;;;;4975004;28;20124;-75
2023/01/25 03:39:39;;;;;;;10.77;8.00;;;6.40;99.90;;;;;;4974390;28;20046;-74
2023/01/25 03:42:06;;;;;;;12.98;8.40;;;6.20;99.90;;;;;;4991423;28;20046;-74
2023/01/25 03:44:34;;;;;;;10.13;7.18;;;6.20;99.90;;;;;;4991000;28;20794;-77
2023/01/25 03:47:01;;;;;;;11.40;7.88;;;6.30;99.90;;;;;;5006848;28;20457;-75
2023/01/25 03:49:28;;;;;;;10.30;7.95;;;6.40;99.90;;;;;;4991557;28;20065;-76
2023/01/25 03:51:59;;;;;;;;;;;6.40;99.90;;;;;;4991173;28;20062;-76
2023/01/25 03:54:31;;;;;;;8.82;6.82;;;6.30;99.90;;;;;;4990482;28;20330;-75
2023/01/25 03:56:59;;;;;;;10.52;7.72;;;6.40;99.90;;;;;;5006895;28;20441;-73
2023/01/25 03:59:28;;;;;;;11.00;7.47;;;6.30;99.90;;;;;;4981883;28;20046;-75
2023/01/25 04:01:55;;;;;;;9.52;7.15;;;6.30;99.90;;;;;;4980731;28;20053;-73
2023/01/25 04:04:23;;;;;;;11.50;7.72;;;6.30;99.90;;;;;;4988560;28;20046;-74
2023/01/25 04:06:50;;;;;;;9.85;7.65;;;6.20;99.90;;;;;;4991179;28;20469;-73
2023/01/25 04:09:20;;;;;;;11.65;7.97;;;6.30;99.90;;;;;;4958602;28;20050;-74
2023/01/25 04:11:50;;;;;;;9.38;7.43;;;6.30;99.90;;;;;;4990953;28;20042;-72
2023/01/25 04:14:17;;;;;;;10.48;8.23;;;6.20;99.90;;;;;;4991091;28;20046;-74
2023/01/25 04:17:04;;;;;;;9.23;7.45;;;6.30;99.90;;;;;;4991302;28;20077;-73
2023/01/25 04:19:32;;;;;;;9.40;7.20;;;6.30;99.90;;;;;;4958230;28;20048;-73
2023/01/25 04:22:03;;;;;;;11.88;7.50;;;6.30;99.90;;;;;;4990805;28;20458;-75
2023/01/25 04:24:31;;;;;;;10.25;7.90;;;6.30;99.90;;;;;;4984994;22;20053;-73
2023/01/25 04:26:58;;;;;;;10.18;7.50;;;6.20;99.90;;;;;;5012568;28;20048;-74
2023/01/25 04:29:25;;;;;;;10.43;7.53;;;6.30;99.90;;;;;;5015183;23;20128;-73
2023/01/25 04:32:07;;;;;;;9.55;7.13;;;6.10;99.90;;;;;;4984335;28;20156;-74
2023/01/25 04:34:35;;;;;;;10.95;7.93;;;6.10;99.90;;;;;;4964616;28;20042;-74
2023/01/25 04:37:03;;;;;;;11.63;7.43;;;6.10;99.90;;;;;;4985391;28;20061;-74
2023/01/25 04:39:31;;;;;;;9.18;7.10;;;6.20;99.90;;;;;;4987419;28;20134;-74
2023/01/25 04:42:07;;;;;;;9.15;7.40;;;6.20;99.90;;;;;;4986311;28;20540;-75
2023/01/25 04:44:35;;;;;;;9.73;7.40;;;6.20;99.90;;;;;;4979294;28;20054;-74
2023/01/25 04:47:02;;;;;;;9.45;7.50;;;6.10;99.90;;;;;;4970711;28;20049;-74
2023/01/25 04:50:07;;;;;;;10.02;7.25;;;6.20;99.90;;;;;;4976650;28;20046;-76
2023/01/25 04:52:42;;;;;;;9.88;7.18;;;6.20;99.90;;;;;;4979478;28;20054;-77
2023/01/25 04:55:14;;;;;;;9.23;7.50;;;6.30;99.90;;;;;;4987907;28;20077;-75
2023/01/25 04:57:42;;;;;;;12.20;7.38;;;6.20;99.90;;;;;;4999859;28;20034;-78
2023/01/25 05:00:17;;;;;;;13.02;7.63;;;6.20;99.90;;;;;;4997567;28;20054;-77
2023/01/25 05:02:47;;;;;;;9.23;7.05;;;6.20;99.90;;;;;;5171054;23;20056;-77
2023/01/25 05:05:15;;;;;;;11.38;7.82;;;6.30;99.90;;;;;;4990601;28;20069;-73
2023/01/25 05:07:42;;;;;;;9.82;7.28;;;6.10;99.90;;;;;;4974889;28;20065;-76
2023/01/25 05:10:15;;;;;;;10.32;7.10;;;6.20;99.90;;;;;;4974600;28;20049;-75
2023/01/25 05:12:42;;;;;;;9.43;7.13;;;6.20;99.90;;;;;;4973045;28;20181;-74
2023/01/25 05:15:12;;;;;;;9.60;6.93;;;6.20;99.90;;;;;;4974647;28;20062;-76
2023/01/25 05:17:40;;;;;;;9.98;7.43;;;6.20;99.90;;;;;;4971304;28;20655;-76
2023/01/25 05:20:08;;;;;;;8.85;7.13;;;6.10;99.90;;;;;;4976070;28;20045;-75
2023/01/25 05:22:36;;;;;;;10.32;7.43;;;6.10;99.90;;;;;;4980908;28;20053;-77
2023/01/25 05:25:05;;;;;;;9.57;7.50;;;6.10;99.90;;;;;;4980268;28;20081;-74
2023/01/25 05:27:37;;;;;;;10.52;7.38;;;6.20;99.90;;;;;;4981201;28;20045;-75
2023/01/25 05:30:08;;;;;;;11.40;7.70;;;6.20;99.90;;;;;;4976441;28;20045;-75
2023/01/25 05:32:35;;;;;;;12.65;8.63;;;6.10;99.90;;;;;;5009268;28;20046;-73
2023/01/25 05:35:03;;;;;;;9.10;7.28;;;6.10;99.90;;;;;;4975855;28;20049;-75
2023/01/25 05:37:33;;;;;;;11.68;8.20;;;6.10;99.90;;;;;;5006943;28;20120;-75
2023/01/25 05:40:00;;;;;;;15.57;9.57;;;6.10;99.90;;;;;;4977130;28;20081;-77
2023/01/25 05:42:30;;;;;;;11.30;7.95;;;6.10;99.90;;;;;;4963148;28;20046;-74
2023/01/25 05:44:59;;;;;;;11.77;8.40;;;6.20;99.90;;;;;;4976185;28;20470;-74
2023/01/25 05:47:26;;;;;;;12.15;8.63;;;6.20;99.90;;;;;;5006491;28;20046;-74
2023/01/25 05:49:55;;;;;;;10.27;7.53;;;6.20;99.90;;;;;;4982439;28;20073;-76
2023/01/25 05:52:23;;;;;;;11.10;7.95;;;6.20;99.90;;;;;;4965715;28;20169;-76
2023/01/25 05:54:51;;;;;;;10.30;7.45;;;6.10;99.90;;;;;;4996938;28;20049;-74
2023/01/25 05:57:22;;;;;;;12.38;8.02;;;6.10;99.90;;;;;;4999187;23;20045;-78
2023/01/25 05:59:58;;;;;;;10.50;7.57;;;6.00;99.90;;;;;;4986070;28;20631;-76
2023/01/25 06:02:30;;;;;;;9.95;7.72;;;6.00;99.90;;;;;;4995901;28;20129;-75
2023/01/25 06:05:04;;;;;;;12.90;8.70;;;6.10;99.90;;;;;;4993713;28;20049;-77
2023/01/25 06:07:35;;;;;;;10.63;7.97;;;6.10;99.90;;;;;;4993106;28;20056;-75
2023/01/25 06:10:08;;;;;;;55.40;33.70;;;6.00;99.90;;;;;;4979604;28;20042;-73
2023/01/25 06:12:36;;;;;;;86.55;47.90;;;6.20;99.90;;;;;;4978072;28;20045;-73
2023/01/25 06:15:03;;;;;;;87.05;47.55;;;6.30;99.90;;;;;;4977032;28;20482;-72
2023/01/25 06:17:31;;;;;;;101.47;55.42;;;6.50;99.90;;;;;;4997606;23;20069;-72
2023/01/25 06:20:02;;;;;;;133.90;71.82;;;6.50;99.90;;;;;;5007362;28;20088;-74
2023/01/25 06:22:39;;;;;;;17.77;14.18;;;6.40;99.90;;;;;;5019296;23;20050;-76
2023/01/25 06:25:07;;;;;;;13.50;9.60;;;6.30;99.90;;;;;;4975641;28;20050;-76
2023/01/25 06:27:35;;;;;;;12.57;8.80;;;6.20;99.90;;;;;;4974126;28;20070;-74
2023/01/25 06:30:02;;;;;;;13.05;8.32;;;6.10;99.90;;;;;;4995941;28;20064;-73
2023/01/25 06:32:33;;;;;;;11.05;8.27;;;6.10;99.90;;;;;;4977574;28;20045;-72
2023/01/25 06:35:08;;;;;;;12.45;8.60;;;6.10;99.90;;;;;;4983601;28;20042;-73
2023/01/25 06:37:36;;;;;;;13.18;8.98;;;6.10;99.90;;;;;;4970677;28;20422;-73
2023/01/25 06:40:06;;;;;;;13.07;9.10;;;6.10;99.90;;;;;;4982769;28;20168;-74
2023/01/25 06:42:36;;;;;;;;;;;6.10;99.90;;;;;;4990749;28;20042;-73
2023/01/25 06:45:04;;;;;;;11.35;8.20;;;6.10;99.90;;;;;;4979486;28;19928;-72
2023/01/25 06:47:31;;;;;;;12.05;8.80;;;6.10;99.90;;;;;;5005669;23;20054;-73
2023/01/25 06:49:58;;;;;;;12.75;9.15;;;6.10;99.90;;;;;;5025658;28;20417;-73
2023/01/25 06:52:30;;;;;;;11.68;8.70;;;6.00;99.90;;;;;;5013594;28;20053;-71
2023/01/25 06:54:57;;;;;;;13.23;8.85;;;6.00;99.90;;;;;;5031560;28;20091;-73
2023/01/25 06:57:26;;;;;;;11.85;8.90;;;6.10;99.90;;;;;;5013832;28;20040;-72
2023/01/25 06:59:53;;;;;;;63.15;34.53;;;6.00;99.90;;;;;;5031699;28;20049;-73
2023/01/25 07:02:22;;;;;;;156.90;86.88;;;6.40;99.90;;;;;;5020394;28;20045;-74
2023/01/25 07:04:50;;;;;;;37.45;24.80;;;6.50;99.90;;;;;;5013995;28;20049;-73
2023/01/25 07:07:17;;;;;;;17.33;13.68;;;6.60;99.90;;;;;;5029496;28;20033;-74
2023/01/25 07:09:44;;;;;;;13.85;10.00;;;6.50;99.90;;;;;;5006801;28;20104;-73
2023/01/25 07:12:11;;;;;;;11.55;9.02;;;6.30;99.90;;;;;;5003852;28;20034;-73
2023/01/25 07:14:39;;;;;;;12.82;8.88;;;6.20;99.90;;;;;;5010540;28;20045;-74
2023/01/25 07:17:06;;;;;;;11.63;8.00;;;6.20;99.90;;;;;;5002853;28;20088;-72
2023/01/25 07:19:33;;;;;;;10.68;8.25;;;6.20;99.90;;;;;;5004976;28;20046;-72
2023/01/25 07:22:01;;;;;;;12.13;9.30;;;6.20;99.90;;;;;;5003086;28;20041;-72
2023/01/25 07:24:28;;;;;;;13.70;9.55;;;6.10;99.90;;;;;;5005004;28;20050;-73
2023/01/25 07:26:55;;;;;;;13.93;9.00;;;6.20;99.90;;;;;;5003608;28;20042;-72
2023/01/25 07:29:23;;;;;;;13.15;9.05;;;6.20;99.90;;;;;;5006733;28;20444;-74
2023/01/25 07:31:50;;;;;;;13.05;9.35;;;6.10;99.90;;;;;;4986648;28;20051;-73
2023/01/25 07:34:18;;;;;;;13.05;9.77;;;6.10;99.90;;;;;;5000283;28;20548;-73
2023/01/25 07:36:45;;;;;;;13.43;9.63;;;6.20;99.90;;;;;;5007585;28;20512;-73
2023/01/25 07:39:13;;;;;;;13.00;8.98;;;6.10;99.90;;;;;;5005732;28;20034;-74
2023/01/25 07:41:40;;;;;;;15.38;10.07;;;6.30;99.90;;;;;;5006769;28;20115;-75
2023/01/25 07:44:09;;;;;;;16.42;9.93;;;6.20;99.90;;;;;;5005392;28;20037;-74
2023/01/25 07:46:36;;;;;;;15.38;10.52;;;6.10;99.90;;;;;;4998500;28;20038;-75
2023/01/25 07:49:03;;;;;;;14.50;10.60;;;6.10;99.90;;;;;;5006065;28;20470;-74
2023/01/25 07:51:30;;;;;;;15.25;10.05;;;6.20;99.90;;;;;;5009295;28;20454;-72
2023/01/25 07:54:00;;;;;;;15.48;9.93;;;6.10;99.90;;;;;;5006546;28;20042;-72
2023/01/25 07:56:33;;;;;;;15.05;10.40;;;6.20;99.90;;;;;;5009911;28;20065;-76
2023/01/25 07:59:04;;;;;;;14.10;10.68;;;6.20;99.90;;;;;;5007052;28;20042;-74
2023/01/25 08:01:33;;;;;;;15.55;10.18;;;6.20;99.90;;;;;;5009320;28;20034;-77
2023/01/25 08:04:02;;;;;;;17.88;10.52;;;6.10;99.90;;;;;;5005601;28;20045;-75
2023/01/25 08:06:37;;;;;;;14.32;10.60;;;6.20;99.90;;;;;;5010211;28;20050;-73
2023/01/25 08:09:12;;;;;;;13.35;9.52;;;6.20;99.90;;;;;;5007684;28;20493;-75
2023/01/25 08:11:41;;;;;;;16.77;10.63;;;6.20;99.90;;;;;;5073090;23;20384;-74
2023/01/25 08:14:10;;;;;;;16.50;10.35;;;6.20;99.90;;;;;;5036687;28;20033;-73
2023/01/25 08:16:37;;;;;;;16.08;11.13;;;6.20;99.90;;;;;;5036476;28;20047;-72
2023/01/25 08:19:04;;;;;;;14.43;10.23;;;6.20;99.90;;;;;;5036334;28;20045;-73
2023/01/25 08:21:34;;;;;;;17.10;10.43;;;6.10;99.90;;;;;;5054140;28;20412;-73
2023/01/25 08:24:04;;;;;;;12.73;9.32;;;6.20;99.90;;;;;;5053427;28;20094;-75
2023/01/25 08:26:33;;;;;;;16.60;10.98;;;6.10;99.90;;;;;;5053812;28;20041;-73
2023/01/25 08:29:00;;;;;;;15.82;9.95;;;6.10;99.90;;;;;;5033206;28;20041;-74
2023/01/25 08:31:30;;;;;;;16.60;9.60;;;6.20;99.90;;;;;;5019595;28;20053;-73
2023/01/25 08:34:03;;;;;;;15.35;10.25;;;6.30;99.90;;;;;;5027892;28;20393;-73
2023/01/25 08:36:30;;;;;;;14.93;10.02;;;6.20;99.90;;;;;;5053744;28;20044;-73
2023/01/25 08:39:04;;;;;;;14.23;10.10;;;6.20;99.90;;;;;;5054160;28;20108;-73
2023/01/25 08:41:33;;;;;;;14.38;9.65;;;6.30;99.90;;;;;;5054009;28;20033;-74
2023/01/25 08:44:03;;;;;;;12.43;9.95;;;6.30;99.90;;;;;;5058189;22;20447;-74
2023/01/25 08:46:32;;;;;;;19.23;10.32;;;6.30;99.90;;;;;;5030551;28;20041;-74
2023/01/25 08:49:01;;;;;;;12.90;9.85;;;6.30;99.90;;;;;;5031845;28;20094;-73
2023/01/25 08:51:30;;;;;;;16.30;9.38;;;6.20;99.90;;;;;;5043678;28;20475;-73
2023/01/25 08:54:10;;;;;;;12.95;9.40;;;6.20;99.90;;;;;;5032669;28;20064;-74
2023/01/25 08:56:39;;;;;;;12.20;9.73;;;6.30;99.90;;;;;;5035807;28;20045;-75
2023/01/25 08:59:12;;;;;;;13.13;9.23;;;6.40;99.90;;;;;;5034258;28;20037;-74
2023/01/25 09:01:42;;;;;;;12.52;9.15;;;6.60;99.90;;;;;;5028566;28;20092;-74
2023/01/25 09:04:09;;;;;;;13.38;9.50;;;6.50;99.90;;;;;;5017229;28;20049;-74
2023/01/25 09:06:37;;;;;;;28.48;15.80;;;6.50;99.90;;;;;;5011710;28;20071;-74
2023/01/25 09:09:05;;;;;;;14.68;10.23;;;6.60;99.90;;;;;;5033534;28;20383;-75
2023/01/25 09:11:35;;;;;;;14.10;9.82;;;6.60;99.90;;;;;;4998886;28;20045;-74
2023/01/25 09:14:04;;;;;;;15.80;9.23;;;6.60;99.90;;;;;;4993211;28;20045;-74
2023/01/25 09:16:31;;;;;;;12.10;8.95;;;6.60;99.90;;;;;;5027947;28;20136;-73
2023/01/25 09:19:01;;;;;;;12.75;9.45;;;6.70;99.90;;;;;;5028216;28;20472;-72
2023/01/25 09:21:32;;;;;;;16.40;10.05;;;6.70;99.90;;;;;;5010147;28;20050;-74
2023/01/25 09:24:01;;;;;;;12.48;9.18;;;6.80;99.90;;;;;;5003185;28;20131;-74
2023/01/25 09:26:39;;;;;;;16.50;9.93;;;6.80;99.90;;;;;;5009727;28;20073;-74
2023/01/25 09:29:10;;;;;;;16.05;9.57;;;6.80;99.90;;;;;;5016444;28;20042;-74
2023/01/25 09:31:39;;;;;;;16.63;10.38;;;6.90;99.90;;;;;;5010174;28;20052;-74
2023/01/25 09:34:07;;;;;;;17.52;10.55;;;6.90;99.90;;;;;;5012386;28;20044;-72
2023/01/25 09:36:36;;;;;;;16.50;10.05;;;6.90;99.90;;;;;;5010360;28;20426;-74
2023/01/25 09:39:03;;;;;;;15.32;11.18;;;7.00;99.90;;;;;;5011165;28;20046;-74
2023/01/25 09:41:40;;;;;;;16.35;10.82;;;7.00;99.90;;;;;;4994563;28;20041;-73
2023/01/25 09:44:34;;;;;;;16.27;11.13;;;7.00;99.90;;;;;;5026245;28;20053;-74
2023/01/25 09:47:27;;;;;;;14.45;11.05;;;6.90;99.90;;;;;;5011786;28;20049;-72
2023/01/25 09:50:32;;;;;;;17.20;11.30;;;6.80;99.90;;;;;;4996184;28;20053;-74
2023/01/25 09:53:16;;;;;;;16.65;11.10;;;6.90;99.90;;;;;;4998354;28;20045;-73
2023/01/25 09:55:52;;;;;;;19.67;12.15;;;6.90;99.90;;;;;;5010236;28;20049;-73
2023/01/25 09:59:00;;;;;;;18.55;10.95;;;6.80;99.90;;;;;;5012912;28;20045;-73
2023/01/25 10:02:11;;;;;;;17.23;11.18;;;6.90;99.90;;;;;;5001873;28;20508;-75
2023/01/25 10:04:42;;;;;;;17.33;11.10;;;7.00;99.90;;;;;;4986804;28;20048;-72
2023/01/25 10:07:40;;;;;;;14.27;10.68;;;7.00;99.90;;;;;;4990777;28;20413;-74
2023/01/25 10:10:34;;;;;;;15.55;10.65;;;6.90;99.90;;;;;;5015855;28;20408;-73
2023/01/25 10:13:02;;;;;;;17.15;10.65;;;6.90;99.90;;;;;;5004130;28;20054;-77
2023/01/25 10:15:37;;;;;;;15.23;11.00;;;7.00;99.90;;;;;;5032045;28;20040;-75
2023/01/25 10:18:54;;;;;;;14.23;10.30;;;7.00;99.90;;;;;;5032814;28;20416;-73
2023/01/25 10:21:37;;;;;;;18.20;11.25;;;7.40;99.90;;;;;;4969227;28;20060;-74
2023/01/25 10:24:25;;;;;;;16.55;11.75;;;7.50;99.90;;;;;;5002106;28;20056;-72
2023/01/25 10:27:01;;;;;;;18.42;10.93;;;7.20;99.90;;;;;;5008890;28;20069;-73
2023/01/25 10:29:35;;;;;;;17.95;11.15;;;7.00;99.90;;;;;;5011650;28;20049;-72
2023/01/25 10:32:22;;;;;;;16.50;11.43;;;7.00;99.90;;;;;;5013926;28;20073;-72
2023/01/25 10:34:49;;;;;;;17.05;11.95;;;7.10;99.90;;;;;;5010308;28;20049;-72
2023/01/25 10:37:29;;;;;;;18.77;12.30;;;7.40;99.90;;;;;;4999886;28;20092;-73
2023/01/25 10:40:19;;;;;;;20.08;11.77;;;7.40;99.90;;;;;;5027536;28;20136;-73
2023/01/25 10:43:13;;;;;;;18.23;11.20;;;7.30;99.90;;;;;;4990175;28;20403;-69
2023/01/25 10:45:43;;;;;;;17.73;11.20;;;7.40;99.90;;;;;;4991442;28;20137;-74
2023/01/25 10:48:17;;;;;;;18.77;11.77;;;7.30;99.90;;;;;;4983353;28;20367;-72
2023/01/25 10:50:48;;;;;;;17.10;12.35;;;7.30;99.90;;;;;;4973447;28;20062;-72
2023/01/25 10:53:28;;;;;;;16.10;11.05;;;7.30;99.90;;;;;;4982940;28;20101;-70
2023/01/25 10:56:10;;;;;;;17.33;11.35;;;7.40;99.90;;;;;;4989228;28;20057;-71
2023/01/25 10:58:45;;;;;;;17.73;11.38;;;7.40;99.90;;;;;;4969181;28;20043;-74
2023/01/25 11:01:28;;;;;;;17.63;10.95;;;7.40;99.90;;;;;;4983463;28;20048;-73
2023/01/25 11:04:03;;;;;;;18.50;12.02;;;7.40;99.90;;;;;;4985099;28;20060;-74
2023/01/25 11:06:35;;;;;;;17.23;11.73;;;7.00;99.90;;;;;;4981841;28;20038;-72
2023/01/25 11:09:21;;;;;;;17.48;12.27;;;7.00;99.90;;;;;;4973905;28;20405;-72
2023/01/25 11:11:59;;;;;;;21.05;12.45;;;7.10;99.90;;;;;;4988778;28;20057;-75
2023/01/25 11:14:29;;;;;;;17.48;12.07;;;7.20;99.90;;;;;;4986474;28;20445;-71
2023/01/25 11:16:58;;;;;;;17.92;11.68;;;7.10;99.90;;;;;;4988240;28;20044;-74
2023/01/25 11:19:35;;;;;;;18.98;12.13;;;7.00;99.90;;;;;;4996366;28;20049;-71
2023/01/25 11:22:23;;;;;;;19.33;11.68;;;7.10;99.90;;;;;;4990247;28;20030;-76
2023/01/25 11:24:53;;;;;;;19.08;12.13;;;7.00;99.90;;;;;;4985225;28;20046;-74
2023/01/25 11:27:26;;;;;;;18.23;11.60;;;7.10;99.90;;;;;;4988837;28;20046;-73
2023/01/25 11:30:10;;;;;;;;;;;7.10;99.90;;;;;;4993291;28;20043;-73
2023/01/25 11:32:43;;;;;;;16.30;10.10;;;7.20;99.90;;;;;;4985308;28;20436;-73
2023/01/25 11:35:22;;;;;;;13.95;10.52;;;7.20;99.90;;;;;;4994820;28;20129;-74
2023/01/25 11:38:18;;;;;;;15.85;10.05;;;7.20;99.90;;;;;;4979634;28;20130;-73
2023/01/25 11:41:13;;;;;;;18.80;10.40;;;7.20;99.90;;;;;;4978377;28;20142;-76
2023/01/25 11:44:10;;;;;;;17.10;10.32;;;7.10;99.90;;;;;;5005330;23;20042;-74
2023/01/25 11:46:58;;;;;;;13.85;9.90;;;7.20;99.90;;;;;;4973095;28;20382;-74
2023/01/25 11:50:14;;;;;;;14.05;9.90;;;7.20;99.90;;;;;;4984503;28;20038;-75
2023/01/25 11:53:28;;;;;;;15.77;10.85;;;7.30;99.90;;;;;;5013566;23;20049;-75
2023/01/25 11:56:23;;;;;;;17.15;10.88;;;7.40;99.90;;;;;;5026202;28;20037;-75
2023/01/25 11:59:33;;;;;;;18.83;10.52;;;7.30;99.90;;;;;;5013280;28;20049;-72
2023/01/25 12:02:12;;;;;;;20.50;11.68;;;7.40;99.90;;;;;;5013310;28;20053;-76
2023/01/25 12:04:59;;;;;;;16.48;11.25;;;7.50;99.90;;;;;;5017539;28;20030;-75
2023/01/25 12:07:44;;;;;;;18.48;12.27;;;7.50;99.90;;;;;;5017907;28;20497;-76
2023/01/25 12:10:55;;;;;;;20.25;12.80;;;7.70;99.90;;;;;;4988417;28;20045;-73
2023/01/25 12:13:53;;;;;;;18.73;11.95;;;7.70;99.90;;;;;;4985335;28;20145;-72
2023/01/25 12:16:34;;;;;;;17.38;11.40;;;7.80;99.90;;;;;;5007613;28;20042;-73
2023/01/25 12:19:36;;;;;;;22.20;13.07;;;7.70;99.90;;;;;;5012712;28;20069;-73
2023/01/25 12:22:22;;;;;;;20.77;13.18;;;7.60;99.90;;;;;;4986749;28;20057;-72
2023/01/25 12:25:20;;;;;;;21.90;12.63;;;7.60;99.90;;;;;;4993780;28;20061;-73
2023/01/25 12:28:06;;;;;;;20.75;13.23;;;7.50;99.90;;;;;;4967856;28;20048;-75
2023/01/25 12:30:38;;;;;;;18.95;13.35;;;7.60;99.90;;;;;;4988557;28;20049;-73
2023/01/25 12:33:16;;;;;;;19.73;13.23;;;7.70;99.90;;;;;;4996219;28;20057;-72
2023/01/25 12:35:58;;;;;;;19.42;13.02;;;7.70;99.90;;;;;;4994884;28;20042;-71
2023/01/25 12:38:49;;;;;;;22.05;13.80;;;7.60;99.90;;;;;;5023256;28;20038;-72
2023/01/25 12:41:44;;;;;;;20.40;13.40;;;7.50;99.90;;;;;;5002993;28;20410;-73
2023/01/25 12:44:37;;;;;;;20.50;12.85;;;7.40;99.90;;;;;;4991873;28;20141;-73
2023/01/25 12:47:23;;;;;;;21.05;13.75;;;7.40;99.90;;;;;;4981646;28;20052;-72
2023/01/25 12:50:01;;;;;;;20.30;13.15;;;7.40;99.90;;;;;;5009500;28;20046;-73
2023/01/25 12:52:45;;;;;;;18.40;12.65;;;7.40;99.90;;;;;;4989580;28;20429;-73
2023/01/25 12:55:26;;;;;;;18.88;13.10;;;7.50;99.90;;;;;;5023798;28;20038;-73
2023/01/25 12:58:06;;;;;;;19.55;12.25;;;7.40;99.90;;;;;;5007449;28;20379;-75
2023/01/25 13:00:45;;;;;;;18.17;12.05;;;7.30;99.90;;;;;;5002573;28;20045;-73
2023/01/25 13:03:40;;;;;;;19.88;12.90;;;7.20;99.90;;;;;;4996387;28;20046;-73
2023/01/25 13:06:38;;;;;;;19.95;13.30;;;7.30;99.90;;;;;;4991524;28;20461;-76
2023/01/25 13:09:36;;;;;;;18.90;12.80;;;7.30;99.90;;;;;;4994332;28;20434;-75
2023/01/25 13:12:04;;;;;;;22.00;13.18;;;7.40;99.90;;;;;;4980849;28;20054;-73
2023/01/25 13:14:36;;;;;;;19.52;13.27;;;7.30;99.90;;;;;;5006251;28;20446;-77
2023/01/25 13:17:29;;;;;;;21.10;12.70;;;7.40;99.90;;;;;;5011939;28;20053;-75
2023/01/25 13:19:57;;;;;;;17.50;12.20;;;7.30;99.90;;;;;;5011920;28;20389;-75
2023/01/25 13:22:47;;;;;;;17.65;12.38;;;7.30;99.90;;;;;;5026100;28;20046;-73
2023/01/25 13:25:20;;;;;;;21.55;13.68;;;7.40;99.90;;;;;;4993351;28;20064;-74
2023/01/25 13:27:51;;;;;;;21.85;12.98;;;7.50;99.90;;;;;;5003601;28;20045;-74
2023/01/25 13:30:33;;;;;;;18.95;13.57;;;7.50;99.90;;;;;;4995616;28;20134;-74
2023/01/25 13:33:05;;;;;;;;;;;7.40;99.90;;;;;;5005194;28;20405;-73
2023/01/25 13:35:36;;;;;;;20.58;12.93;;;7.30;99.90;;;;;;4996445;28;20324;-74
2023/01/25 13:38:31;;;;;;;21.13;12.57;;;7.40;99.90;;;;;;5004523;28;20043;-72